Indian Point, Vermont
Current Conditions -  °F | °C
As of 5:35 PM on Monday 26 Jan 2015 (Local Time) from KEFK Reporting Station
Clear Clear  
Wind Chill: -9°   Ceiling: Unl
Heat Index:   Visibility: 10mi
Dew Point: -6°   Wind: 7mph
Humidity: 67%   Direction: 340°NNW
Pressure: 30.12"   Gusts: NA
Location:  44.9201°N, 72.2004°W
Report Text: KEFK 262235Z AUTO 34006KT 10SM CLR M16/M21 A3012 RMK AO2 T11601209
Loading
Personal Weather Stations






























Interactive Weather Map New forecast layout! Learn more

10-Day Weather Forecast

Advertisements
Track Severe Weather on mobile